X  Lukk Metar værinformasjon om luftfart     ENZV Stavanger Airport, Sola
Temperatur
15°C Temperatur
7°C Duggpunkt
59% Luftfuktighet



Vind
6 M/S
14 MPT
23 KM/T
12 KNP



130°
Nåværende forhold

For det meste Overskyet For det meste Overskyet
Trykk 1005.76 (hPa) - 29.7 (inHg)
Sikt 6 (mil) - 9.7 (km)
Flyplass
Flyplass-kode ENZV

Plassering: Stavanger Airport, Sola
Avstand: 15 (km)

Metar:
ENZV 141820Z 13012KT 9999 BKN047 15/07 Q1006 NOSIG

Tid: 14-06-2024 18:20 CEST